sensor_id;sensor_type;location;lat;lon;timestamp;temperature;humidity
15916;DHT22;8057;47.830;-3.870;2023-03-14T00:03:02;10.80;99.90
15916;DHT22;8057;47.830;-3.870;2023-03-14T00:07:12;10.80;99.90
15916;DHT22;8057;47.830;-3.870;2023-03-14T00:11:22;10.90;99.90
15916;DHT22;8057;47.830;-3.870;2023-03-14T00:15:34;10.80;99.90
15916;DHT22;8057;47.830;-3.870;2023-03-14T00:19:43;10.80;99.90
15916;DHT22;8057;47.830;-3.870;2023-03-14T00:23:52;10.60;99.90
15916;DHT22;8057;47.830;-3.870;2023-03-14T00:28:02;10.70;99.90
15916;DHT22;8057;47.830;-3.870;2023-03-14T00:32:12;10.70;99.90
15916;DHT22;8057;47.830;-3.870;2023-03-14T00:36:22;10.60;99.90
15916;DHT22;8057;47.830;-3.870;2023-03-14T00:40:31;10.70;99.90
15916;DHT22;8057;47.830;-3.870;2023-03-14T00:44:40;10.60;99.90
15916;DHT22;8057;47.830;-3.870;2023-03-14T00:48:51;10.60;99.90
15916;DHT22;8057;47.830;-3.870;2023-03-14T00:53:00;10.60;99.90
15916;DHT22;8057;47.830;-3.870;2023-03-14T00:57:09;10.60;99.90
15916;DHT22;8057;47.830;-3.870;2023-03-14T01:01:20;10.60;99.90
15916;DHT22;8057;47.830;-3.870;2023-03-14T01:05:31;10.50;99.90
15916;DHT22;8057;47.830;-3.870;2023-03-14T01:09:42;10.40;99.90
15916;DHT22;8057;47.830;-3.870;2023-03-14T01:13:52;10.50;99.90
15916;DHT22;8057;47.830;-3.870;2023-03-14T01:18:01;10.50;99.90
15916;DHT22;8057;47.830;-3.870;2023-03-14T01:22:12;10.50;99.90
15916;DHT22;8057;47.830;-3.870;2023-03-14T01:26:26;10.40;99.90
15916;DHT22;8057;47.830;-3.870;2023-03-14T01:30:42;10.40;99.90
15916;DHT22;8057;47.830;-3.870;2023-03-14T01:35:18;10.30;99.90
15916;DHT22;8057;47.830;-3.870;2023-03-14T01:39:31;10.20;99.90
15916;DHT22;8057;47.830;-3.870;2023-03-14T01:43:42;10.20;99.90
15916;DHT22;8057;47.830;-3.870;2023-03-14T01:47:51;10.30;99.90
15916;DHT22;8057;47.830;-3.870;2023-03-14T01:52:03;10.30;99.90
15916;DHT22;8057;47.830;-3.870;2023-03-14T01:56:17;10.20;99.90
15916;DHT22;8057;47.830;-3.870;2023-03-14T02:00:27;10.20;99.90
15916;DHT22;8057;47.830;-3.870;2023-03-14T02:04:37;10.20;99.90
15916;DHT22;8057;47.830;-3.870;2023-03-14T02:08:47;10.20;99.90
15916;DHT22;8057;47.830;-3.870;2023-03-14T02:13:03;10.10;99.90
15916;DHT22;8057;47.830;-3.870;2023-03-14T02:17:19;10.10;99.90
15916;DHT22;8057;47.830;-3.870;2023-03-14T02:21:38;10.00;99.90
15916;DHT22;8057;47.830;-3.870;2023-03-14T02:25:59;9.90;99.90
15916;DHT22;8057;47.830;-3.870;2023-03-14T02:30:16;9.80;99.90
15916;DHT22;8057;47.830;-3.870;2023-03-14T02:34:28;9.80;99.90
15916;DHT22;8057;47.830;-3.870;2023-03-14T02:38:53;9.90;99.90
15916;DHT22;8057;47.830;-3.870;2023-03-14T02:43:07;9.70;99.90
15916;DHT22;8057;47.830;-3.870;2023-03-14T02:47:20;9.60;99.90
15916;DHT22;8057;47.830;-3.870;2023-03-14T02:51:32;9.60;99.90
15916;DHT22;8057;47.830;-3.870;2023-03-14T02:55:45;9.60;99.90
15916;DHT22;8057;47.830;-3.870;2023-03-14T02:59:58;9.50;99.90
15916;DHT22;8057;47.830;-3.870;2023-03-14T03:04:10;9.50;99.90
15916;DHT22;8057;47.830;-3.870;2023-03-14T03:08:20;9.50;99.90
15916;DHT22;8057;47.830;-3.870;2023-03-14T03:12:29;9.40;99.90
15916;DHT22;8057;47.830;-3.870;2023-03-14T03:16:38;9.30;99.90
15916;DHT22;8057;47.830;-3.870;2023-03-14T03:20:49;9.20;99.90
15916;DHT22;8057;47.830;-3.870;2023-03-14T03:24:58;9.20;99.90
15916;DHT22;8057;47.830;-3.870;2023-03-14T03:29:08;9.20;99.90
15916;DHT22;8057;47.830;-3.870;2023-03-14T03:33:17;9.20;99.90
15916;DHT22;8057;47.830;-3.870;2023-03-14T03:37:30;9.30;99.90
15916;DHT22;8057;47.830;-3.870;2023-03-14T03:41:39;9.10;99.90
15916;DHT22;8057;47.830;-3.870;2023-03-14T03:45:48;9.10;99.90
15916;DHT22;8057;47.830;-3.870;2023-03-14T03:49:58;9.10;99.90
15916;DHT22;8057;47.830;-3.870;2023-03-14T03:54:08;9.20;99.90
15916;DHT22;8057;47.830;-3.870;2023-03-14T03:58:18;9.20;99.90
15916;DHT22;8057;47.830;-3.870;2023-03-14T04:02:27;9.20;99.90
15916;DHT22;8057;47.830;-3.870;2023-03-14T04:06:37;9.20;99.90
15916;DHT22;8057;47.830;-3.870;2023-03-14T04:10:48;9.20;99.90
15916;DHT22;8057;47.830;-3.870;2023-03-14T04:14:57;9.10;99.90
15916;DHT22;8057;47.830;-3.870;2023-03-14T04:19:07;9.10;99.90
15916;DHT22;8057;47.830;-3.870;2023-03-14T04:23:16;9.10;99.90
15916;DHT22;8057;47.830;-3.870;2023-03-14T04:27:27;9.10;99.90
15916;DHT22;8057;47.830;-3.870;2023-03-14T04:31:36;9.10;99.90
15916;DHT22;8057;47.830;-3.870;2023-03-14T04:35:46;9.10;99.90
15916;DHT22;8057;47.830;-3.870;2023-03-14T04:40:00;9.10;99.90
15916;DHT22;8057;47.830;-3.870;2023-03-14T04:44:13;9.20;99.90
15916;DHT22;8057;47.830;-3.870;2023-03-14T04:48:23;9.10;99.90
15916;DHT22;8057;47.830;-3.870;2023-03-14T04:52:32;9.00;99.90
15916;DHT22;8057;47.830;-3.870;2023-03-14T04:56:41;8.90;99.90
15916;DHT22;8057;47.830;-3.870;2023-03-14T05:00:52;8.90;99.90
15916;DHT22;8057;47.830;-3.870;2023-03-14T05:05:01;8.80;99.90
15916;DHT22;8057;47.830;-3.870;2023-03-14T05:09:11;8.80;99.90
15916;DHT22;8057;47.830;-3.870;2023-03-14T05:13:20;8.70;99.90
15916;DHT22;8057;47.830;-3.870;2023-03-14T05:17:32;8.70;99.90
15916;DHT22;8057;47.830;-3.870;2023-03-14T05:21:42;8.70;99.90
15916;DHT22;8057;47.830;-3.870;2023-03-14T05:25:51;8.70;99.90
15916;DHT22;8057;47.830;-3.870;2023-03-14T05:30:00;8.80;99.90
15916;DHT22;8057;47.830;-3.870;2023-03-14T05:34:11;8.80;99.90
15916;DHT22;8057;47.830;-3.870;2023-03-14T05:38:20;8.90;99.90
15916;DHT22;8057;47.830;-3.870;2023-03-14T05:42:30;8.80;99.90
15916;DHT22;8057;47.830;-3.870;2023-03-14T05:46:39;8.90;99.90
15916;DHT22;8057;47.830;-3.870;2023-03-14T05:50:54;9.00;99.90
15916;DHT22;8057;47.830;-3.870;2023-03-14T05:55:05;9.00;99.90
15916;DHT22;8057;47.830;-3.870;2023-03-14T05:59:14;9.00;99.90
15916;DHT22;8057;47.830;-3.870;2023-03-14T06:03:24;9.00;99.90
15916;DHT22;8057;47.830;-3.870;2023-03-14T06:07:34;9.00;99.90
15916;DHT22;8057;47.830;-3.870;2023-03-14T06:11:44;8.80;99.90
15916;DHT22;8057;47.830;-3.870;2023-03-14T06:15:54;8.70;99.90
15916;DHT22;8057;47.830;-3.870;2023-03-14T06:20:03;8.70;99.90
15916;DHT22;8057;47.830;-3.870;2023-03-14T06:24:14;8.70;99.90
15916;DHT22;8057;47.830;-3.870;2023-03-14T06:28:24;8.70;99.90
15916;DHT22;8057;47.830;-3.870;2023-03-14T06:32:33;8.80;99.90
15916;DHT22;8057;47.830;-3.870;2023-03-14T06:36:42;8.90;99.90
15916;DHT22;8057;47.830;-3.870;2023-03-14T06:40:53;8.90;99.90
15916;DHT22;8057;47.830;-3.870;2023-03-14T06:45:03;8.80;99.90
15916;DHT22;8057;47.830;-3.870;2023-03-14T06:49:12;8.70;99.90
15916;DHT22;8057;47.830;-3.870;2023-03-14T06:53:21;8.70;99.90
15916;DHT22;8057;47.830;-3.870;2023-03-14T06:57:34;8.70;99.90
15916;DHT22;8057;47.830;-3.870;2023-03-14T07:01:43;8.80;99.90
15916;DHT22;8057;47.830;-3.870;2023-03-14T07:05:53;8.80;99.90
15916;DHT22;8057;47.830;-3.870;2023-03-14T07:10:02;8.80;99.90
15916;DHT22;8057;47.830;-3.870;2023-03-14T07:14:13;8.80;99.90
15916;DHT22;8057;47.830;-3.870;2023-03-14T07:18:29;8.90;99.90
15916;DHT22;8057;47.830;-3.870;2023-03-14T07:27:10;9.00;99.90
15916;DHT22;8057;47.830;-3.870;2023-03-14T07:55:01;9.30;99.90
15916;DHT22;8057;47.830;-3.870;2023-03-14T07:59:12;9.60;99.90
15916;DHT22;8057;47.830;-3.870;2023-03-14T08:26:48;10.70;99.90
15916;DHT22;8057;47.830;-3.870;2023-03-14T08:30:58;10.90;99.90
15916;DHT22;8057;47.830;-3.870;2023-03-14T08:35:23;11.00;99.90
15916;DHT22;8057;47.830;-3.870;2023-03-14T08:39:34;11.20;99.90
15916;DHT22;8057;47.830;-3.870;2023-03-14T08:43:45;11.30;99.90
15916;DHT22;8057;47.830;-3.870;2023-03-14T08:47:54;11.20;99.90
15916;DHT22;8057;47.830;-3.870;2023-03-14T08:52:04;11.00;99.90
15916;DHT22;8057;47.830;-3.870;2023-03-14T08:56:14;10.90;99.90
15916;DHT22;8057;47.830;-3.870;2023-03-14T09:00:26;10.90;99.90
15916;DHT22;8057;47.830;-3.870;2023-03-14T09:04:35;11.00;99.90
